createdAt,value
2022-09-01T00:00:52.044Z,2.92
2022-09-01T00:03:26.740Z,4.75
2022-09-01T00:05:58.761Z,3.25
2022-09-01T00:08:28.807Z,3.65
2022-09-01T00:10:58.658Z,3.63
2022-09-01T00:13:29.047Z,6.32
2022-09-01T00:16:02.775Z,4.38
2022-09-01T00:18:34.368Z,4.75
2022-09-01T00:21:04.739Z,7.35
2022-09-01T00:23:34.987Z,9.15
2022-09-01T00:26:05.363Z,4.00
2022-09-01T00:28:39.607Z,8.15
2022-09-01T00:31:11.795Z,4.47
2022-09-01T00:33:41.777Z,2.83
2022-09-01T00:36:12.368Z,4.93
2022-09-01T00:38:43.725Z,5.00
2022-09-01T00:41:14.731Z,3.00
2022-09-01T00:43:58.274Z,7.32
2022-09-01T00:46:36.530Z,5.43
2022-09-01T00:49:22.795Z,3.65
2022-09-01T00:51:58.591Z,9.27
2022-09-01T00:54:34.121Z,5.60
2022-09-01T00:57:07.479Z,4.20
2022-09-01T00:59:47.457Z,7.43
2022-09-01T01:02:19.001Z,4.97
2022-09-01T01:04:49.104Z,3.05
2022-09-01T01:07:19.464Z,8.73
2022-09-01T01:09:49.663Z,2.03
2022-09-01T01:12:19.928Z,3.28
2022-09-01T01:14:52.185Z,3.35
2022-09-01T01:17:23.955Z,3.03
2022-09-01T01:20:17.714Z,4.22
2022-09-01T01:23:10.536Z,2.67
2022-09-01T01:25:50.527Z,2.13
2022-09-01T01:28:33.702Z,3.50
2022-09-01T01:31:13.552Z,5.53
2022-09-01T01:33:48.342Z,3.22
2022-09-01T01:36:28.629Z,5.63
2022-09-01T01:39:03.589Z,2.80
2022-09-01T01:41:35.110Z,6.45
2022-09-01T01:44:07.076Z,1.42
2022-09-01T01:46:39.194Z,3.80
2022-09-01T01:49:09.110Z,10.65
2022-09-01T01:51:38.779Z,2.60
2022-09-01T01:54:09.060Z,2.00
2022-09-01T01:56:41.336Z,4.40
2022-09-01T01:59:18.520Z,2.88
2022-09-01T02:01:52.760Z,3.30
2022-09-01T02:04:23.086Z,2.55
2022-09-01T02:06:53.738Z,1.95
2022-09-01T02:09:24.891Z,2.38
2022-09-01T02:11:58.920Z,2.78
2022-09-01T02:14:28.544Z,2.22
2022-09-01T02:16:58.241Z,2.25
2022-09-01T02:19:28.055Z,2.33
2022-09-01T02:21:57.922Z,4.18
2022-09-01T02:24:28.083Z,1.70
2022-09-01T02:26:58.358Z,2.85
2022-09-01T02:29:30.454Z,1.80
2022-09-01T02:32:04.842Z,4.20
2022-09-01T02:34:36.279Z,2.08
2022-09-01T02:37:05.858Z,1.77
2022-09-01T02:39:35.499Z,1.52
2022-09-01T02:42:05.471Z,5.85
2022-09-01T02:44:39.496Z,1.85
2022-09-01T02:47:11.642Z,7.32
2022-09-01T02:49:44.131Z,3.88
2022-09-01T02:52:15.005Z,2.45
2022-09-01T02:54:47.236Z,3.42
2022-09-01T02:57:17.521Z,2.75
2022-09-01T02:59:49.118Z,4.80
2022-09-01T03:02:18.752Z,2.67
2022-09-01T03:04:51.479Z,7.35
2022-09-01T03:07:23.408Z,1.67
2022-09-01T03:09:54.405Z,1.92
2022-09-01T03:15:18.015Z,2.95
2022-09-01T03:17:47.484Z,2.00
2022-09-01T03:20:18.556Z,3.17
2022-09-01T03:22:49.441Z,5.25
2022-09-01T03:25:20.311Z,2.33
2022-09-01T03:27:49.873Z,3.85
2022-09-01T03:30:19.608Z,3.97
2022-09-01T03:32:50.601Z,2.85
2022-09-01T03:35:20.729Z,2.13
2022-09-01T03:37:51.034Z,2.13
2022-09-01T03:40:21.498Z,2.10
2022-09-01T03:42:55.622Z,2.78
2022-09-01T03:45:27.488Z,4.30
2022-09-01T03:47:58.681Z,4.63
2022-09-01T03:50:30.235Z,3.00
2022-09-01T03:53:02.947Z,3.42
2022-09-01T03:55:36.010Z,2.08
2022-09-01T03:58:11.579Z,2.03
2022-09-01T04:00:48.818Z,2.22
2022-09-01T04:03:28.286Z,3.80
2022-09-01T04:05:59.978Z,4.88
2022-09-01T04:08:33.806Z,3.72
2022-09-01T04:11:06.828Z,2.83
2022-09-01T04:13:43.802Z,3.05
2022-09-01T04:16:53.841Z,6.30
2022-09-01T04:19:29.542Z,2.00
2022-09-01T04:22:03.060Z,6.72
2022-09-01T04:24:35.028Z,4.32
2022-09-01T04:27:05.399Z,5.50
2022-09-01T04:29:34.991Z,3.90
2022-09-01T04:32:09.445Z,6.45
2022-09-01T04:34:41.387Z,2.92
2022-09-01T04:37:20.425Z,2.03
2022-09-01T04:39:58.112Z,2.75
2022-09-01T04:42:30.653Z,3.72
2022-09-01T04:45:10.556Z,2.90
2022-09-01T04:47:43.574Z,5.25
2022-09-01T04:50:19.020Z,1.88
2022-09-01T04:52:49.460Z,2.17
2022-09-01T04:55:22.143Z,2.92
2022-09-01T04:57:52.518Z,2.20
2022-09-01T05:00:26.939Z,2.15
2022-09-01T05:03:05.987Z,5.22
2022-09-01T05:05:44.579Z,1.83
2022-09-01T05:08:18.216Z,2.50
2022-09-01T05:10:57.237Z,1.63
2022-09-01T05:13:28.995Z,6.38
2022-09-01T05:16:07.710Z,2.00
2022-09-01T05:18:37.844Z,4.03
2022-09-01T05:21:12.694Z,2.50
2022-09-01T05:23:44.892Z,2.85
2022-09-01T05:26:25.475Z,2.60
2022-09-01T05:28:58.091Z,2.75
2022-09-01T05:31:36.417Z,4.05
2022-09-01T05:34:07.101Z,2.80
2022-09-01T05:36:38.024Z,2.35
2022-09-01T05:39:09.424Z,2.58
2022-09-01T05:41:42.690Z,1.70
2022-09-01T05:44:14.008Z,2.33
2022-09-01T05:46:46.101Z,1.88
2022-09-01T05:49:18.613Z,3.85
2022-09-01T05:51:51.490Z,2.25
2022-09-01T05:54:24.761Z,2.60
2022-09-01T05:56:56.029Z,2.75
2022-09-01T05:59:27.197Z,2.47
2022-09-01T06:01:58.030Z,2.90
2022-09-01T06:04:28.590Z,4.63
2022-09-01T06:07:07.721Z,5.97
2022-09-01T06:09:43.199Z,3.55
2022-09-01T06:12:19.148Z,4.40
2022-09-01T06:14:50.330Z,2.60
2022-09-01T06:17:26.242Z,2.85
2022-09-01T06:19:58.175Z,4.25
2022-09-01T06:22:30.179Z,3.17
2022-09-01T06:25:03.114Z,4.30
2022-09-01T06:27:33.074Z,2.63
2022-09-01T06:30:02.886Z,5.78
2022-09-01T06:32:32.482Z,2.22
2022-09-01T06:35:02.167Z,2.67
2022-09-01T06:37:37.055Z,5.55
2022-09-01T06:40:08.527Z,1.45
2022-09-01T06:42:39.479Z,1.88
2022-09-01T06:45:12.005Z,3.63
2022-09-01T06:47:42.009Z,2.03
2022-09-01T06:50:12.993Z,4.60
2022-09-01T06:55:39.504Z,3.20
2022-09-01T06:58:14.019Z,2.63
2022-09-01T07:00:45.158Z,6.95
2022-09-01T07:03:16.850Z,4.10
2022-09-01T07:06:04.369Z,5.20
2022-09-01T07:14:24.682Z,7.22
2022-09-01T07:17:23.125Z,1.65
2022-09-01T07:19:51.032Z,3.90
2022-09-01T07:22:39.241Z,3.45
2022-09-01T07:25:13.884Z,3.03
2022-09-01T07:27:52.243Z,1.90
2022-09-01T07:30:25.938Z,3.92
2022-09-01T07:32:57.742Z,3.80
2022-09-01T07:39:48.463Z,6.95
2022-09-01T07:44:18.103Z,2.67
2022-09-01T07:52:33.273Z,3.40
2022-09-01T07:55:02.901Z,2.95
2022-09-01T07:57:33.609Z,4.28
2022-09-01T08:00:03.179Z,2.75
2022-09-01T08:02:34.106Z,3.35
2022-09-01T08:05:03.853Z,2.72
2022-09-01T08:07:51.631Z,2.38
2022-09-01T08:10:21.704Z,2.03
2022-09-01T08:12:58.988Z,2.42
2022-09-01T08:18:19.150Z,3.40
2022-09-01T08:20:49.834Z,2.80
2022-09-01T08:23:22.034Z,5.05
2022-09-01T08:25:52.447Z,3.50
2022-09-01T08:28:29.242Z,3.22
2022-09-01T08:30:59.849Z,3.03
2022-09-01T08:33:31.091Z,2.63
2022-09-01T08:36:00.698Z,3.95
2022-09-01T08:38:30.489Z,5.20
2022-09-01T08:41:01.877Z,4.43
2022-09-01T08:44:02.469Z,3.55
2022-09-01T08:46:40.606Z,2.15
2022-09-01T08:49:26.540Z,7.40
2022-09-01T08:52:08.442Z,3.20
2022-09-01T08:55:07.869Z,2.63
2022-09-01T08:57:40.977Z,2.38
2022-09-01T09:00:14.944Z,2.17
2022-09-01T09:03:08.823Z,2.92
2022-09-01T09:06:18.011Z,4.47
2022-09-01T09:09:06.859Z,2.00
2022-09-01T09:12:17.774Z,2.08
2022-09-01T09:15:27.282Z,2.55
2022-09-01T09:18:20.218Z,3.17
2022-09-01T09:20:56.795Z,2.45
2022-09-01T09:23:34.779Z,2.30
2022-09-01T09:26:07.943Z,4.00
2022-09-01T09:28:40.235Z,3.13
2022-09-01T09:31:32.318Z,2.17
2022-09-01T09:34:04.122Z,6.28
2022-09-01T09:36:39.269Z,5.15
2022-09-01T09:39:14.104Z,3.78
2022-09-01T09:41:45.151Z,3.05
2022-09-01T09:44:32.789Z,3.28
2022-09-01T09:49:42.251Z,1.45
2022-09-01T09:52:20.835Z,2.35
2022-09-01T09:55:29.642Z,2.25
2022-09-01T09:58:03.081Z,3.38
2022-09-01T10:00:36.168Z,4.28
2022-09-01T10:03:11.225Z,2.92
2022-09-01T10:05:54.779Z,1.77
2022-09-01T10:08:46.960Z,3.83
2022-09-01T10:11:44.311Z,2.33
2022-09-01T10:14:35.481Z,3.40
2022-09-01T10:17:36.593Z,2.40
2022-09-01T10:20:19.223Z,7.47
2022-09-01T10:22:50.631Z,1.70
2022-09-01T10:25:25.032Z,5.75
2022-09-01T10:28:20.686Z,2.25
2022-09-01T10:30:52.371Z,9.52
2022-09-01T10:33:24.182Z,4.55
2022-09-01T10:35:56.345Z,1.90
2022-09-01T10:38:31.261Z,4.03
2022-09-01T10:41:14.963Z,4.85
2022-09-01T10:43:52.137Z,3.67
2022-09-01T10:46:50.577Z,2.30
2022-09-01T10:49:59.741Z,2.15
2022-09-01T10:52:59.650Z,2.03
2022-09-01T10:55:40.986Z,3.85
2022-09-01T11:05:17.882Z,3.28
2022-09-01T11:08:00.375Z,4.43
2022-09-01T11:10:46.301Z,1.98
2022-09-01T11:13:56.602Z,2.67
2022-09-01T11:16:49.603Z,1.48
2022-09-01T11:19:59.807Z,1.50
2022-09-01T11:23:00.930Z,2.47
2022-09-01T11:28:44.483Z,6.35
2022-09-01T11:31:28.865Z,1.90
2022-09-01T11:34:15.052Z,4.60
2022-09-01T11:36:57.133Z,5.85
2022-09-01T11:39:42.644Z,6.15
2022-09-01T11:42:29.653Z,15.77
2022-09-01T11:45:23.472Z,8.60
2022-09-01T11:47:58.049Z,5.55
2022-09-01T11:50:34.549Z,8.18
2022-09-01T11:53:09.923Z,8.18
2022-09-01T11:55:48.470Z,8.32
2022-09-01T11:58:36.658Z,10.23
2022-09-01T12:01:33.813Z,9.95
2022-09-01T12:04:29.098Z,13.60
2022-09-01T12:07:10.791Z,11.85
2022-09-01T12:09:49.734Z,15.63
2022-09-01T12:12:37.690Z,8.48
2022-09-01T12:15:23.444Z,8.95
2022-09-01T12:17:53.881Z,9.85
2022-09-01T12:20:37.268Z,8.75
2022-09-01T12:23:20.631Z,10.60
2022-09-01T12:25:50.778Z,11.13
2022-09-01T12:28:20.802Z,10.82
2022-09-01T12:30:52.674Z,10.70
2022-09-01T12:33:23.874Z,9.40
2022-09-01T12:35:59.306Z,8.40
2022-09-01T12:38:32.366Z,7.95
2022-09-01T12:41:02.038Z,9.23
2022-09-01T12:43:41.231Z,7.82
2022-09-01T12:46:11.957Z,10.25
2022-09-01T12:48:44.716Z,14.98
2022-09-01T12:51:29.320Z,10.30
2022-09-01T12:54:04.877Z,12.52
2022-09-01T12:56:36.737Z,11.90
2022-09-01T12:59:15.797Z,13.55
2022-09-01T13:01:47.711Z,12.57
2022-09-01T13:04:37.042Z,15.80
2022-09-01T13:07:09.435Z,14.20
2022-09-01T13:09:39.657Z,11.20
2022-09-01T13:12:28.940Z,7.80
2022-09-01T13:14:58.907Z,11.68
2022-09-01T13:17:28.777Z,8.50
2022-09-01T13:19:58.480Z,13.98
2022-09-01T13:22:28.082Z,9.73
2022-09-01T13:24:57.775Z,15.52
2022-09-01T13:27:27.414Z,8.88
2022-09-01T13:29:57.317Z,9.57
2022-09-01T13:32:27.891Z,9.05
2022-09-01T13:34:57.611Z,8.50
2022-09-01T13:37:27.376Z,9.88
2022-09-01T13:39:57.005Z,7.25
2022-09-01T13:42:27.022Z,6.57
2022-09-01T13:44:58.540Z,9.27
2022-09-01T13:47:29.168Z,11.40
2022-09-01T13:50:09.952Z,10.13
2022-09-01T13:52:42.905Z,9.88
2022-09-01T13:55:20.744Z,6.78
2022-09-01T14:00:35.312Z,7.82
2022-09-01T14:03:10.231Z,6.38
2022-09-01T14:05:43.201Z,7.95
2022-09-01T14:08:14.227Z,8.27
2022-09-01T14:10:46.801Z,12.85
2022-09-01T14:13:17.262Z,12.82
2022-09-01T14:15:48.606Z,13.13
2022-09-01T14:18:19.552Z,18.92
2022-09-01T14:20:52.935Z,15.98
2022-09-01T14:23:22.827Z,14.77
2022-09-01T14:25:54.763Z,11.52
2022-09-01T14:28:25.750Z,12.93
2022-09-01T14:33:28.851Z,13.52
2022-09-01T14:35:58.428Z,9.45
2022-09-01T14:38:28.028Z,9.55
2022-09-01T14:40:57.662Z,10.02
2022-09-01T14:43:28.210Z,11.45
2022-09-01T14:46:11.747Z,11.05
2022-09-01T14:48:42.663Z,16.38
2022-09-01T14:51:20.100Z,13.65
2022-09-01T14:53:50.735Z,13.10
2022-09-01T14:56:20.937Z,11.73
2022-09-01T14:58:51.529Z,12.50
2022-09-01T15:01:34.250Z,18.67
2022-09-01T15:04:04.898Z,7.75
2022-09-01T15:06:35.580Z,9.15
2022-09-01T15:09:05.428Z,11.73
2022-09-01T15:11:35.824Z,11.75
2022-09-01T15:14:14.198Z,14.80
2022-09-01T15:16:43.834Z,10.05
2022-09-01T15:19:15.126Z,10.18
2022-09-01T15:21:47.833Z,15.48
2022-09-01T15:24:18.801Z,7.28
2022-09-01T15:26:48.978Z,18.80
2022-09-01T15:29:18.944Z,15.13
2022-09-01T15:31:48.942Z,12.52
2022-09-01T15:34:20.639Z,12.65
2022-09-01T15:36:50.584Z,14.25
2022-09-01T15:39:20.498Z,10.55
2022-09-01T15:41:50.602Z,8.65
2022-09-01T15:44:20.541Z,8.95
2022-09-01T15:46:50.631Z,8.07
2022-09-01T15:49:20.707Z,15.70
2022-09-01T15:51:50.643Z,12.05
2022-09-01T15:54:25.048Z,6.10
2022-09-01T15:56:57.130Z,8.95
2022-09-01T15:59:27.144Z,8.70
2022-09-01T16:01:59.857Z,15.63
2022-09-01T16:04:29.855Z,9.07
2022-09-01T16:06:59.983Z,8.88
2022-09-01T16:09:30.811Z,11.93
2022-09-01T16:12:00.858Z,11.77
2022-09-01T16:14:33.017Z,12.63
2022-09-01T16:17:29.824Z,7.82
2022-09-01T16:20:05.781Z,14.20
2022-09-01T16:22:45.381Z,11.60
2022-09-01T16:25:20.738Z,11.45
2022-09-01T16:27:50.291Z,10.25
2022-09-01T16:30:29.395Z,15.77
2022-09-01T16:33:05.030Z,11.07
2022-09-01T16:35:50.823Z,14.35
2022-09-01T16:38:48.581Z,12.23
2022-09-01T16:41:49.899Z,11.90
2022-09-01T16:44:51.658Z,12.90
2022-09-01T16:47:35.086Z,10.10
2022-09-01T16:50:29.536Z,7.25
2022-09-01T16:53:30.098Z,9.18
2022-09-01T16:56:34.430Z,8.52
2022-09-01T16:59:43.845Z,11.68
2022-09-01T17:02:42.240Z,12.77
2022-09-01T17:05:50.955Z,11.77
2022-09-01T17:08:35.859Z,7.82
2022-09-01T17:11:12.443Z,16.02
2022-09-01T17:13:53.472Z,13.70
2022-09-01T17:16:38.661Z,10.32
2022-09-01T17:19:19.457Z,6.78
2022-09-01T17:22:01.977Z,13.27
2022-09-01T17:24:48.044Z,14.40
2022-09-01T17:27:39.388Z,8.93
2022-09-01T17:30:10.126Z,7.82
2022-09-01T17:33:08.826Z,11.77
2022-09-01T17:36:09.084Z,14.60
2022-09-01T17:38:55.712Z,12.07
2022-09-01T17:41:54.515Z,14.75
2022-09-01T17:44:57.694Z,10.10
2022-09-01T17:48:06.170Z,13.48
2022-09-01T17:51:13.911Z,12.30
2022-09-01T17:54:13.362Z,11.35
2022-09-01T17:57:09.350Z,19.42
2022-09-01T18:00:06.525Z,15.00
2022-09-01T18:03:05.735Z,10.55
2022-09-01T18:05:46.102Z,13.20
2022-09-01T18:08:43.549Z,11.32
2022-09-01T18:11:20.882Z,10.27
2022-09-01T18:14:15.782Z,8.05
2022-09-01T18:17:07.116Z,10.48
2022-09-01T18:19:45.201Z,23.38
2022-09-01T18:22:23.159Z,8.93
2022-09-01T18:27:33.216Z,9.90
2022-09-01T18:30:03.771Z,12.80
2022-09-01T18:32:49.909Z,12.00
2022-09-01T18:35:47.273Z,15.93
2022-09-01T18:38:48.380Z,13.00
2022-09-01T18:41:42.512Z,5.40
2022-09-01T18:44:51.335Z,6.80
2022-09-01T18:47:35.972Z,10.23
2022-09-01T18:50:29.498Z,10.45
2022-09-01T18:53:31.803Z,10.68
2022-09-01T18:56:40.481Z,9.63
2022-09-01T18:59:47.139Z,7.95
2022-09-01T19:02:55.942Z,7.50
2022-09-01T19:06:04.709Z,11.93
2022-09-01T19:09:02.050Z,8.65
2022-09-01T19:11:55.299Z,7.63
2022-09-01T19:14:55.080Z,10.95
2022-09-01T19:17:54.508Z,12.55
2022-09-01T19:20:31.557Z,11.05
2022-09-01T19:23:16.207Z,11.40
2022-09-01T19:25:47.239Z,7.78
2022-09-01T19:28:42.997Z,15.57
2022-09-01T19:31:28.399Z,9.80
2022-09-01T19:34:07.964Z,17.35
2022-09-01T19:36:49.810Z,13.00
2022-09-01T19:39:26.908Z,12.80
2022-09-01T19:42:20.263Z,8.97
2022-09-01T19:45:09.068Z,14.32
2022-09-01T19:48:05.758Z,14.73
2022-09-01T19:51:01.093Z,8.32
2022-09-01T19:54:00.091Z,5.57
2022-09-01T19:56:54.852Z,12.05
2022-09-01T19:59:44.207Z,8.68
2022-09-01T20:02:36.671Z,8.75
2022-09-01T20:05:47.435Z,6.40
2022-09-01T20:08:39.514Z,8.85
2022-09-01T20:11:46.878Z,9.20
2022-09-01T20:14:45.072Z,10.20
2022-09-01T20:17:35.203Z,8.82
2022-09-01T20:20:22.842Z,8.35
2022-09-01T20:23:16.294Z,13.02
2022-09-01T20:25:55.960Z,11.00
2022-09-01T20:28:35.364Z,7.05
2022-09-01T20:31:11.558Z,10.25
2022-09-01T20:33:54.334Z,5.80
2022-09-01T20:36:41.639Z,18.27
2022-09-01T20:39:54.429Z,22.10
2022-09-01T20:42:50.137Z,4.97
2022-09-01T20:45:26.626Z,6.80
2022-09-01T20:48:03.779Z,13.25
2022-09-01T20:50:56.100Z,7.60
2022-09-01T20:54:04.961Z,10.02
2022-09-01T20:57:07.699Z,7.55
2022-09-01T20:59:58.342Z,13.00
2022-09-01T21:03:04.902Z,8.07
2022-09-01T21:06:00.854Z,9.60
2022-09-01T21:08:59.485Z,8.85
2022-09-01T21:12:08.352Z,6.13
2022-09-01T21:15:17.092Z,11.32
2022-09-01T21:18:21.766Z,9.55
2022-09-01T21:21:30.539Z,4.65
2022-09-01T21:24:00.604Z,9.60
2022-09-01T21:26:31.732Z,7.50
2022-09-01T21:29:07.002Z,9.63
2022-09-01T21:31:37.023Z,6.90
2022-09-01T21:34:06.940Z,12.65
2022-09-01T21:36:36.899Z,7.57
2022-09-01T21:39:06.871Z,11.65
2022-09-01T21:41:37.317Z,5.45
2022-09-01T21:44:08.184Z,8.68
2022-09-01T21:46:38.439Z,12.63
2022-09-01T21:49:08.490Z,5.60
2022-09-01T21:51:38.521Z,11.00
2022-09-01T21:54:08.611Z,7.07
2022-09-01T21:56:39.467Z,8.20
2022-09-01T21:59:09.381Z,13.35
2022-09-01T22:01:39.362Z,4.20
2022-09-01T22:04:10.494Z,5.28
2022-09-01T22:06:42.160Z,8.10
2022-09-01T22:09:21.346Z,5.25
2022-09-01T22:11:52.956Z,6.38
2022-09-01T22:14:24.028Z,9.18
2022-09-01T22:16:54.151Z,5.03
2022-09-01T22:19:24.172Z,5.65
2022-09-01T22:21:55.423Z,6.07
2022-09-01T22:24:25.418Z,15.13
2022-09-01T22:26:55.412Z,8.85
2022-09-01T22:29:25.523Z,7.82
2022-09-01T22:31:55.643Z,5.85
2022-09-01T22:34:25.555Z,6.95
2022-09-01T22:36:55.645Z,5.00
2022-09-01T22:39:25.702Z,8.02
2022-09-01T22:41:57.140Z,10.23
2022-09-01T22:44:27.679Z,10.27
2022-09-01T22:46:57.746Z,8.65
2022-09-01T22:49:28.062Z,5.72
2022-09-01T22:51:58.180Z,5.60
2022-09-01T22:54:28.150Z,10.10
2022-09-01T22:56:59.480Z,4.85
2022-09-01T22:59:29.638Z,8.20
2022-09-01T23:01:59.624Z,11.23
2022-09-01T23:04:29.646Z,5.10
2022-09-01T23:06:59.760Z,5.15
2022-09-01T23:09:29.723Z,8.40
2022-09-01T23:11:59.768Z,4.75
2022-09-01T23:14:30.505Z,14.50
2022-09-01T23:17:00.622Z,11.93
2022-09-01T23:19:30.743Z,9.10
2022-09-01T23:22:00.850Z,8.23
2022-09-01T23:24:31.152Z,15.70
2022-09-01T23:27:01.355Z,12.82
2022-09-01T23:29:31.365Z,11.75
2022-09-01T23:32:01.626Z,9.65
2022-09-01T23:34:31.568Z,13.82
2022-09-01T23:37:01.491Z,12.93
2022-09-01T23:39:31.501Z,15.65
2022-09-01T23:42:01.826Z,13.50
2022-09-01T23:44:32.630Z,9.07
2022-09-01T23:47:02.234Z,11.20
2022-09-01T23:49:31.896Z,12.80
2022-09-01T23:52:01.635Z,12.68
2022-09-01T23:54:31.270Z,11.88
2022-09-01T23:57:00.813Z,9.98
2022-09-01T23:59:31.017Z,8.15
